createdAt,value
2019-04-13T00:01:02.152Z,102385.09
2019-04-13T00:03:32.715Z,102390.27
2019-04-13T00:06:22.554Z,102392.77
2019-04-13T00:08:52.600Z,102389.30
2019-04-13T00:11:41.789Z,102383.35
2019-04-13T00:14:11.313Z,102381.98
2019-04-13T00:16:40.823Z,102384.29
2019-04-13T00:19:10.410Z,102381.77
2019-04-13T00:21:40.045Z,102380.47
2019-04-13T00:24:10.032Z,102377.00
2019-04-13T00:26:39.643Z,102376.42
2019-04-13T00:29:09.979Z,102370.56
2019-04-13T00:31:39.621Z,102365.48
2019-04-13T00:34:09.247Z,102372.97
2019-04-13T00:36:38.811Z,102372.87
2019-04-13T00:39:09.123Z,102375.27
2019-04-13T00:41:38.699Z,102371.43
2019-04-13T00:44:08.331Z,102366.45
2019-04-13T00:46:38.039Z,102370.66
2019-04-13T00:49:07.621Z,102365.48
2019-04-13T00:51:38.550Z,102369.52
2019-04-13T00:54:08.135Z,102357.00
2019-04-13T00:56:37.712Z,102360.66
2019-04-13T00:59:07.272Z,102353.27
2019-04-13T01:01:36.794Z,102362.67
2019-04-13T01:04:06.315Z,102357.01
2019-04-13T01:06:35.944Z,102352.86
2019-04-13T01:09:09.238Z,102350.67
2019-04-13T01:11:39.525Z,102347.50
2019-04-13T01:14:09.340Z,102355.89
2019-04-13T01:16:38.876Z,102352.36
2019-04-13T01:19:08.802Z,102353.75
2019-04-13T01:21:38.407Z,102352.20
2019-04-13T01:24:08.093Z,102355.06
2019-04-13T01:26:37.622Z,102353.54
2019-04-13T01:29:07.235Z,102359.03
2019-04-13T01:31:36.854Z,102351.14
2019-04-13T01:34:06.436Z,102351.45
2019-04-13T01:36:36.116Z,102351.05
2019-04-13T01:39:08.179Z,102346.75
2019-04-13T01:41:37.697Z,102346.75
2019-04-13T01:44:07.402Z,102349.55
2019-04-13T01:46:36.905Z,102344.75
2019-04-13T01:49:06.411Z,102338.20
2019-04-13T01:51:36.153Z,102337.05
2019-04-13T01:54:05.808Z,102339.16
2019-04-13T01:56:35.330Z,102339.73
2019-04-13T01:59:04.953Z,102333.41
2019-04-13T02:01:36.198Z,102323.04
2019-04-13T02:04:10.238Z,102331.48
2019-04-13T02:06:41.485Z,102327.44
2019-04-13T02:09:23.012Z,102329.17
2019-04-13T02:11:52.589Z,102331.09
2019-04-13T02:14:22.166Z,102333.77
2019-04-13T02:16:51.696Z,102330.12
2019-04-13T02:19:21.684Z,102335.02
2019-04-13T02:21:51.345Z,102339.66
2019-04-13T02:24:20.892Z,102338.27
2019-04-13T02:26:50.464Z,102341.89
2019-04-13T02:29:19.976Z,102330.08
2019-04-13T02:31:49.490Z,102331.31
2019-04-13T02:34:20.116Z,102327.05
2019-04-13T02:36:49.721Z,102326.45
2019-04-13T02:39:19.256Z,102333.60
2019-04-13T02:41:49.027Z,102330.25
2019-04-13T02:44:18.744Z,102330.84
2019-04-13T02:46:48.253Z,102327.89
2019-04-13T02:49:17.812Z,102325.27
2019-04-13T02:51:47.494Z,102321.54
2019-04-13T02:54:17.011Z,102325.19
2019-04-13T02:56:46.676Z,102326.33
2019-04-13T02:59:16.374Z,102321.52
2019-04-13T03:01:46.009Z,102325.37
2019-04-13T03:04:15.916Z,102323.73
2019-04-13T03:06:45.568Z,102330.59
2019-04-13T03:09:15.236Z,102324.02
2019-04-13T03:11:44.867Z,102321.77
2019-04-13T03:14:14.461Z,102321.05
2019-04-13T03:16:45.750Z,102314.91
2019-04-13T03:19:19.759Z,102316.53
2019-04-13T03:21:49.329Z,102316.64
2019-04-13T03:24:18.932Z,102313.59
2019-04-13T03:26:48.607Z,102312.36
2019-04-13T03:29:18.241Z,102315.80
2019-04-13T03:31:47.803Z,102316.23
2019-04-13T03:34:17.495Z,102314.08
2019-04-13T03:36:47.095Z,102316.09
2019-04-13T03:39:16.619Z,102315.20
2019-04-13T03:41:46.360Z,102317.23
2019-04-13T03:44:15.982Z,102310.33
2019-04-13T03:46:45.545Z,102315.22
2019-04-13T03:49:15.102Z,102312.72
2019-04-13T03:51:44.629Z,102309.95
2019-04-13T03:54:14.237Z,102308.81
2019-04-13T03:56:43.808Z,102307.66
2019-04-13T03:59:13.397Z,102305.27
2019-04-13T04:01:45.446Z,102310.03
2019-04-13T04:04:14.360Z,102308.03
2019-04-13T04:06:43.879Z,102302.00
2019-04-13T04:09:13.471Z,102303.61
2019-04-13T04:11:43.006Z,102301.89
2019-04-13T04:14:12.646Z,102302.34
2019-04-13T04:16:43.087Z,102304.02
2019-04-13T04:19:12.720Z,102295.53
2019-04-13T04:21:42.220Z,102299.00
2019-04-13T04:24:11.724Z,102301.37
2019-04-13T04:26:45.015Z,102301.86
2019-04-13T04:29:14.548Z,102302.62
2019-04-13T04:31:44.084Z,102309.82
2019-04-13T04:34:13.720Z,102306.17
2019-04-13T04:36:43.300Z,102301.98
2019-04-13T04:39:12.884Z,102303.88
2019-04-13T04:41:42.443Z,102308.68
2019-04-13T04:44:12.093Z,102309.56
2019-04-13T04:46:41.758Z,102310.59
2019-04-13T04:49:12.329Z,102311.25
2019-04-13T04:51:41.999Z,102310.70
2019-04-13T04:54:11.585Z,102311.94
2019-04-13T04:56:41.626Z,102313.39
2019-04-13T04:59:11.132Z,102317.35
2019-04-13T05:01:40.739Z,102311.20
2019-04-13T05:04:10.361Z,102311.52
2019-04-13T05:06:40.016Z,102314.91
2019-04-13T05:09:09.527Z,102313.91
2019-04-13T05:11:39.456Z,102318.54
2019-04-13T05:14:09.037Z,102313.25
2019-04-13T05:16:38.625Z,102325.10
2019-04-13T05:19:08.201Z,102320.63
2019-04-13T05:21:37.701Z,102320.34
2019-04-13T05:24:07.299Z,102324.23
2019-04-13T05:26:36.918Z,102327.35
2019-04-13T05:29:06.415Z,102326.91
2019-04-13T05:31:36.113Z,102324.95
2019-04-13T05:34:08.302Z,102319.77
2019-04-13T05:36:47.168Z,102322.18
2019-04-13T05:39:09.197Z,102331.40
2019-04-13T05:41:38.763Z,102324.13
2019-04-13T05:44:08.289Z,102336.80
2019-04-13T05:46:37.863Z,102328.34
2019-04-13T05:49:07.405Z,102327.07
2019-04-13T05:51:37.063Z,102330.17
2019-04-13T05:54:06.718Z,102333.65
2019-04-13T05:56:36.848Z,102331.72
2019-04-13T05:59:06.379Z,102340.67
2019-04-13T06:01:35.888Z,102336.86
2019-04-13T06:04:05.868Z,102338.25
2019-04-13T06:06:35.744Z,102335.47
2019-04-13T06:09:08.183Z,102343.53
2019-04-13T06:11:37.954Z,102338.13
2019-04-13T06:14:07.471Z,102343.16
2019-04-13T06:16:37.586Z,102349.53
2019-04-13T06:19:08.288Z,102349.73
2019-04-13T06:21:40.203Z,102345.84
2019-04-13T06:24:09.185Z,102351.38
2019-04-13T06:26:41.451Z,102348.91
2019-04-13T06:29:10.564Z,102346.02
2019-04-13T06:31:42.193Z,102343.94
2019-04-13T06:34:12.016Z,102349.38
2019-04-13T06:36:41.943Z,102349.63
2019-04-13T06:39:12.480Z,102347.58
2019-04-13T06:41:44.304Z,102341.87
2019-04-13T06:44:15.239Z,102336.34
2019-04-13T06:46:44.811Z,102335.87
2019-04-13T06:49:14.915Z,102338.59
2019-04-13T06:51:44.545Z,102340.42
2019-04-13T06:54:14.085Z,102341.28
2019-04-13T06:56:43.991Z,102341.44
2019-04-13T06:59:13.530Z,102339.32
2019-04-13T07:01:43.134Z,102346.64
2019-04-13T07:04:14.072Z,102345.09
2019-04-13T07:06:47.794Z,102340.75
2019-04-13T07:09:25.546Z,102346.16
2019-04-13T07:11:56.321Z,102345.47
2019-04-13T07:14:25.422Z,102346.25
2019-04-13T07:16:56.729Z,102347.71
2019-04-13T07:19:26.265Z,102345.22
2019-04-13T07:21:55.811Z,102349.32
2019-04-13T07:24:28.423Z,102346.23
2019-04-13T07:26:56.733Z,102345.75
2019-04-13T07:29:26.239Z,102342.77
2019-04-13T07:31:55.823Z,102345.67
2019-04-13T07:34:25.353Z,102346.26
2019-04-13T07:36:54.934Z,102348.58
2019-04-13T07:39:24.511Z,102345.41
2019-04-13T07:41:54.074Z,102349.30
2019-04-13T07:44:25.302Z,102346.66
2019-04-13T07:47:16.667Z,102344.55
2019-04-13T07:49:46.170Z,102353.20
2019-04-13T07:52:17.379Z,102353.20
2019-04-13T07:54:47.457Z,102348.48
2019-04-13T07:57:17.026Z,102357.03
2019-04-13T07:59:48.012Z,102355.22
2019-04-13T08:02:17.936Z,102356.92
2019-04-13T08:04:47.787Z,102360.28
2019-04-13T08:07:17.373Z,102361.84
2019-04-13T08:09:46.998Z,102360.47
2019-04-13T08:12:17.099Z,102367.99
2019-04-13T08:14:46.737Z,102363.76
2019-04-13T08:17:20.395Z,102366.34
2019-04-13T08:19:50.614Z,102370.27
2019-04-13T08:22:20.222Z,102368.00
2019-04-13T08:24:49.806Z,102362.38
2019-04-13T08:27:19.411Z,102358.48
2019-04-13T08:29:48.945Z,102362.31
2019-04-13T08:32:18.523Z,102365.19
2019-04-13T08:34:48.064Z,102364.88
2019-04-13T08:37:17.661Z,102370.68
2019-04-13T08:40:01.320Z,102368.13
2019-04-13T08:42:20.263Z,102364.01
2019-04-13T08:44:51.988Z,102354.98
2019-04-13T08:47:22.075Z,102352.69
2019-04-13T08:49:51.583Z,102355.54
2019-04-13T08:52:21.134Z,102352.53
2019-04-13T08:54:50.696Z,102356.85
2019-04-13T08:57:20.233Z,102349.09
2019-04-13T08:59:49.745Z,102354.28
2019-04-13T09:02:19.713Z,102350.09
2019-04-13T09:04:49.277Z,102352.92
2019-04-13T09:07:18.797Z,102344.95
2019-04-13T09:09:50.271Z,102330.38
2019-04-13T09:12:20.476Z,102338.35
2019-04-13T09:14:53.927Z,102345.01
2019-04-13T09:17:22.747Z,102350.07
2019-04-13T09:19:55.107Z,102344.16
2019-04-13T09:22:25.042Z,102341.07
2019-04-13T09:24:54.713Z,102341.72
2019-04-13T09:27:24.219Z,102352.16
2019-04-13T09:29:53.715Z,102344.89
2019-04-13T09:32:23.375Z,102343.39
2019-04-13T09:34:52.889Z,102337.72
2019-04-13T09:37:22.398Z,102344.30
2019-04-13T09:39:54.277Z,102348.95
2019-04-13T09:42:24.247Z,102357.42
2019-04-13T09:44:54.799Z,102352.96
2019-04-13T09:47:26.183Z,102348.78
2019-04-13T09:49:59.132Z,102355.95
2019-04-13T09:52:31.239Z,102348.87
2019-04-13T09:54:58.629Z,102340.52
2019-04-13T09:57:29.196Z,102318.11
2019-04-13T09:59:59.250Z,102312.44
2019-04-13T10:02:29.381Z,102313.67
2019-04-13T10:04:58.907Z,102314.52
2019-04-13T10:07:30.363Z,102314.33
2019-04-13T10:09:59.952Z,102305.16
2019-04-13T10:12:47.100Z,102300.53
2019-04-13T10:15:35.339Z,102300.16
2019-04-13T10:18:06.905Z,102296.18
2019-04-13T10:20:36.499Z,102294.89
2019-04-13T10:23:06.190Z,102291.73
2019-04-13T10:25:38.132Z,102291.14
2019-04-13T10:28:07.217Z,102285.14
2019-04-13T10:30:36.823Z,102288.03
2019-04-13T10:33:06.533Z,102278.22
2019-04-13T10:35:36.148Z,102272.36
2019-04-13T10:38:05.848Z,102264.30
2019-04-13T10:40:37.674Z,102266.73
2019-04-13T10:43:07.204Z,102261.34
2019-04-13T10:45:41.998Z,102264.91
2019-04-13T10:48:13.280Z,102261.75
2019-04-13T10:50:47.942Z,102263.69
2019-04-13T10:53:17.468Z,102265.44
2019-04-13T10:55:47.589Z,102269.67
2019-04-13T10:58:17.235Z,102261.30
2019-04-13T11:00:46.825Z,102267.70
2019-04-13T11:03:16.423Z,102274.75
2019-04-13T11:05:45.968Z,102276.83
2019-04-13T11:08:20.053Z,102277.97
2019-04-13T11:10:46.927Z,102273.80
2019-04-13T11:13:16.533Z,102276.12
2019-04-13T11:15:46.140Z,102282.37
2019-04-13T11:18:15.823Z,102282.52
2019-04-13T11:20:45.914Z,102282.45
2019-04-13T11:23:15.571Z,102297.03
2019-04-13T11:25:45.224Z,102300.78
2019-04-13T11:28:14.809Z,102317.02
2019-04-13T11:30:44.315Z,102319.78
2019-04-13T11:33:13.989Z,102299.48
2019-04-13T11:35:43.496Z,102298.47
2019-04-13T11:38:13.036Z,102286.89
2019-04-13T11:40:45.144Z,102278.31
2019-04-13T11:43:16.307Z,102281.39
2019-04-13T11:45:53.502Z,102277.86
2019-04-13T11:48:49.608Z,102271.95
2019-04-13T11:51:32.222Z,102272.02
2019-04-13T11:54:04.035Z,102259.08
2019-04-13T11:56:36.773Z,102261.36
2019-04-13T11:59:04.250Z,102261.33
2019-04-13T12:01:38.288Z,102262.34
2019-04-13T12:04:09.536Z,102256.34
2019-04-13T12:06:38.952Z,102253.23
2019-04-13T12:09:13.223Z,102251.34
2019-04-13T12:12:00.894Z,102253.02
2019-04-13T12:14:35.451Z,102258.59
2019-04-13T12:17:24.559Z,102268.45
2019-04-13T12:20:11.536Z,102266.78
2019-04-13T12:22:42.706Z,102252.83
2019-04-13T12:25:12.784Z,102252.85
2019-04-13T12:27:42.453Z,102249.69
2019-04-13T12:30:14.983Z,102236.58
2019-04-13T12:32:47.229Z,102248.78
2019-04-13T12:35:16.148Z,102241.36
2019-04-13T12:37:45.812Z,102230.94
2019-04-13T12:40:17.036Z,102238.25
2019-04-13T12:42:46.712Z,102233.61
2019-04-13T12:45:16.377Z,102232.84
2019-04-13T12:47:46.419Z,102223.51
2019-04-13T12:50:16.899Z,102225.42
2019-04-13T12:52:47.864Z,102230.05
2019-04-13T12:55:19.775Z,102222.85
2019-04-13T12:57:49.228Z,102228.83
2019-04-13T13:00:21.363Z,102225.23
2019-04-13T13:02:52.355Z,102229.23
2019-04-13T13:05:23.572Z,102222.97
2019-04-13T13:07:54.228Z,102224.94
2019-04-13T13:10:25.197Z,102227.97
2019-04-13T13:12:55.140Z,102227.50
2019-04-13T13:15:24.808Z,102236.47
2019-04-13T13:17:54.665Z,102229.58
2019-04-13T13:20:24.808Z,102227.08
2019-04-13T13:22:54.458Z,102223.10
2019-04-13T13:25:43.848Z,102223.77
2019-04-13T13:28:13.530Z,102217.83
2019-04-13T13:30:43.036Z,102214.08
2019-04-13T13:33:12.537Z,102211.19
2019-04-13T13:35:42.180Z,102217.51
2019-04-13T13:38:11.767Z,102209.19
2019-04-13T13:40:41.344Z,102202.91
2019-04-13T13:43:13.999Z,102210.23
2019-04-13T13:45:44.021Z,102206.29
2019-04-13T13:48:13.528Z,102200.92
2019-04-13T13:50:43.238Z,102199.40
2019-04-13T13:53:12.758Z,102186.45
2019-04-13T13:55:43.042Z,102181.23
2019-04-13T13:58:17.184Z,102184.50
2019-04-13T14:01:03.692Z,102176.25
2019-04-13T14:03:33.306Z,102171.42
2019-04-13T14:06:02.823Z,102181.67
2019-04-13T14:08:32.392Z,102174.88
2019-04-13T14:11:02.112Z,102175.77
2019-04-13T14:13:31.625Z,102178.66
2019-04-13T14:16:01.296Z,102184.03
2019-04-13T14:18:33.932Z,102174.00
2019-04-13T14:21:04.323Z,102178.05
2019-04-13T14:23:34.827Z,102171.25
2019-04-13T14:26:04.509Z,102171.50
2019-04-13T14:28:34.014Z,102164.31
2019-04-13T14:31:03.518Z,102172.78
2019-04-13T14:33:33.148Z,102164.89
2019-04-13T14:36:02.654Z,102165.18
2019-04-13T14:38:32.162Z,102160.92
2019-04-13T14:41:02.396Z,102156.56
2019-04-13T14:43:41.542Z,102151.68
2019-04-13T14:46:12.005Z,102151.33
2019-04-13T14:48:41.516Z,102151.45
2019-04-13T14:51:12.640Z,102142.35
2019-04-13T14:53:46.152Z,102137.03
2019-04-13T14:56:13.629Z,102141.55
2019-04-13T14:58:45.769Z,102144.77
2019-04-13T15:01:14.704Z,102153.05
2019-04-13T15:03:44.209Z,102150.59
2019-04-13T15:06:13.738Z,102156.02
2019-04-13T15:08:43.949Z,102169.66
2019-04-13T15:11:17.744Z,102179.53
2019-04-13T15:13:47.071Z,102177.51
2019-04-13T15:16:21.982Z,102183.20
2019-04-13T15:18:52.238Z,102191.08
2019-04-13T15:21:23.143Z,102187.80
2019-04-13T15:23:53.742Z,102188.41
2019-04-13T15:26:23.510Z,102189.87
2019-04-13T15:28:53.746Z,102197.83
2019-04-13T15:31:26.133Z,102184.96
2019-04-13T15:33:59.417Z,102198.63
2019-04-13T15:36:30.623Z,102196.53
2019-04-13T15:39:01.557Z,102186.80
2019-04-13T15:41:38.449Z,102203.23
2019-04-13T15:44:04.878Z,102199.34
2019-04-13T15:46:35.182Z,102195.62
2019-04-13T15:49:05.408Z,102188.89
2019-04-13T15:51:34.968Z,102185.34
2019-04-13T15:54:05.756Z,102186.20
2019-04-13T15:56:36.573Z,102185.06
2019-04-13T15:59:07.944Z,102183.04
2019-04-13T16:01:38.995Z,102176.78
2019-04-13T16:04:09.521Z,102183.59
2019-04-13T16:06:40.032Z,102178.73
2019-04-13T16:09:12.328Z,102183.77
2019-04-13T16:11:51.165Z,102180.73
2019-04-13T16:14:15.883Z,102183.27
2019-04-13T16:16:45.983Z,102185.17
2019-04-13T16:19:15.776Z,102180.97
2019-04-13T16:21:45.480Z,102171.70
2019-04-13T16:24:15.628Z,102170.09
2019-04-13T16:26:45.135Z,102167.45
2019-04-13T16:29:34.430Z,102164.46
2019-04-13T16:32:12.370Z,102165.84
2019-04-13T16:34:44.536Z,102169.80
2019-04-13T16:37:27.862Z,102169.03
2019-04-13T16:39:57.893Z,102178.28
2019-04-13T16:42:31.045Z,102173.38
2019-04-13T16:45:09.064Z,102173.75
2019-04-13T16:47:43.830Z,102170.92
2019-04-13T16:50:13.876Z,102167.03
2019-04-13T16:52:43.368Z,102168.75
2019-04-13T16:55:16.947Z,102179.33
2019-04-13T16:57:50.871Z,102183.36
2019-04-13T17:00:39.765Z,102183.36
2019-04-13T17:03:09.652Z,102199.39
2019-04-13T17:05:41.900Z,102192.02
2019-04-13T17:08:11.960Z,102195.22
2019-04-13T17:10:44.578Z,102194.61
2019-04-13T17:13:14.123Z,102191.30
2019-04-13T17:15:44.218Z,102188.48
2019-04-13T17:18:18.704Z,102197.31
2019-04-13T17:20:51.424Z,102196.67
2019-04-13T17:23:27.186Z,102191.78
2019-04-13T17:26:00.101Z,102190.39
2019-04-13T17:28:48.057Z,102194.72
2019-04-13T17:31:28.470Z,102191.39
2019-04-13T17:34:07.083Z,102197.87
2019-04-13T17:36:38.339Z,102197.77
2019-04-13T17:39:08.794Z,102193.93
2019-04-13T17:41:40.447Z,102198.98
2019-04-13T17:44:12.432Z,102200.94
2019-04-13T17:46:47.282Z,102207.55
2019-04-13T17:49:34.813Z,102205.12
2019-04-13T17:52:23.465Z,102209.41
2019-04-13T17:54:55.997Z,102210.91
2019-04-13T17:57:31.001Z,102213.28
2019-04-13T18:00:12.308Z,102213.80
2019-04-13T18:02:52.769Z,102217.77
2019-04-13T18:05:36.058Z,102219.87
2019-04-13T18:08:05.900Z,102219.05
2019-04-13T18:10:38.157Z,102227.56
2019-04-13T18:13:12.251Z,102229.13
2019-04-13T18:15:43.469Z,102234.31
2019-04-13T18:18:14.612Z,102241.47
2019-04-13T18:20:46.957Z,102234.83
2019-04-13T18:23:16.452Z,102236.22
2019-04-13T18:25:52.125Z,102239.30
2019-04-13T18:28:17.310Z,102251.77
2019-04-13T18:30:48.313Z,102247.13
2019-04-13T18:33:18.157Z,102242.00
2019-04-13T18:35:50.665Z,102242.75
2019-04-13T18:38:21.159Z,102248.73
2019-04-13T18:40:51.681Z,102243.71
2019-04-13T18:43:27.528Z,102246.75
2019-04-13T18:45:53.798Z,102244.99
2019-04-13T18:48:23.318Z,102250.95
2019-04-13T18:50:56.400Z,102259.45
2019-04-13T18:53:26.196Z,102252.82
2019-04-13T18:55:55.987Z,102261.03
2019-04-13T18:58:25.764Z,102261.81
2019-04-13T19:00:55.327Z,102268.50
2019-04-13T19:03:25.817Z,102268.65
2019-04-13T19:05:55.727Z,102268.91
2019-04-13T19:08:25.233Z,102277.31
2019-04-13T19:10:54.861Z,102273.30
2019-04-13T19:13:24.921Z,102281.58
2019-04-13T19:15:54.458Z,102281.09
2019-04-13T19:18:24.214Z,102279.09
2019-04-13T19:20:54.056Z,102278.20
2019-04-13T19:23:24.049Z,102289.42
2019-04-13T19:25:55.032Z,102287.48
2019-04-13T19:28:24.740Z,102290.08
2019-04-13T19:30:54.318Z,102291.31
2019-04-13T19:33:25.149Z,102297.73
2019-04-13T19:35:55.166Z,102298.27
2019-04-13T19:38:24.749Z,102293.73
2019-04-13T19:40:55.283Z,102288.38
2019-04-13T19:43:27.564Z,102291.69
2019-04-13T19:45:57.214Z,102289.75
2019-04-13T19:48:26.805Z,102285.45
2019-04-13T19:50:57.440Z,102283.80
2019-04-13T19:53:29.868Z,102288.55
2019-04-13T19:56:01.007Z,102296.63
2019-04-13T19:58:30.565Z,102291.75
2019-04-13T20:01:01.440Z,102286.92
2019-04-13T20:03:31.109Z,102289.09
2019-04-13T20:06:04.191Z,102287.05
2019-04-13T20:08:32.657Z,102287.67
2019-04-13T20:11:02.223Z,102287.68
2019-04-13T20:13:41.588Z,102289.55
2019-04-13T20:16:03.744Z,102290.80
2019-04-13T20:18:33.447Z,102293.55
2019-04-13T20:21:06.257Z,102293.62
2019-04-13T20:23:35.791Z,102296.23
2019-04-13T20:26:05.745Z,102298.86
2019-04-13T20:28:35.467Z,102299.13
2019-04-13T20:31:07.173Z,102292.80
2019-04-13T20:33:37.186Z,102304.06
2019-04-13T20:36:11.621Z,102297.72
2019-04-13T20:38:38.995Z,102301.94
2019-04-13T20:41:12.558Z,102303.80
2019-04-13T20:43:51.858Z,102305.56
2019-04-13T20:46:14.640Z,102313.89
2019-04-13T20:48:46.702Z,102316.44
2019-04-13T20:51:19.219Z,102314.20
2019-04-13T20:53:48.848Z,102316.61
2019-04-13T20:56:18.673Z,102313.94
2019-04-13T20:58:48.965Z,102314.87
2019-04-13T21:01:19.075Z,102318.58
2019-04-13T21:03:49.159Z,102322.17
2019-04-13T21:06:20.087Z,102314.48
2019-04-13T21:08:52.625Z,102311.52
2019-04-13T21:11:20.993Z,102310.92
2019-04-13T21:14:02.915Z,102314.27
2019-04-13T21:16:23.519Z,102312.64
2019-04-13T21:18:53.595Z,102311.58
2019-04-13T21:21:23.769Z,102308.98
2019-04-13T21:23:53.811Z,102311.30
2019-04-13T21:26:25.307Z,102306.69
2019-04-13T21:28:55.945Z,102308.04
2019-04-13T21:31:25.997Z,102304.30
2019-04-13T21:33:56.179Z,102307.83
2019-04-13T21:36:28.703Z,102303.50
2019-04-13T21:38:58.457Z,102310.04
2019-04-13T21:41:28.365Z,102309.20
2019-04-13T21:44:10.118Z,102311.03
2019-04-13T21:46:29.218Z,102307.19
2019-04-13T21:48:59.268Z,102303.55
2019-04-13T21:51:46.847Z,102304.50
2019-04-13T21:54:19.016Z,102305.75
2019-04-13T21:56:49.467Z,102305.95
2019-04-13T21:59:19.481Z,102311.22
2019-04-13T22:02:11.384Z,102303.64
2019-04-13T22:04:41.500Z,102302.68
2019-04-13T22:07:11.409Z,102308.25
2019-04-13T22:09:41.339Z,102308.63
2019-04-13T22:12:13.183Z,102309.69
2019-04-13T22:14:51.837Z,102308.23
2019-04-13T22:17:14.310Z,102317.18
2019-04-13T22:19:46.600Z,102315.64
2019-04-13T22:22:16.523Z,102323.13
2019-04-13T22:24:46.439Z,102324.86
2019-04-13T22:27:16.365Z,102324.00
2019-04-13T22:29:48.449Z,102317.36
2019-04-13T22:32:23.214Z,102326.88
2019-04-13T22:35:04.378Z,102323.04
2019-04-13T22:37:34.338Z,102326.78
2019-04-13T22:40:06.821Z,102326.78
2019-04-13T22:42:36.416Z,102321.98
2019-04-13T22:45:11.825Z,102322.75
2019-04-13T22:47:40.739Z,102326.69
2019-04-13T22:50:19.939Z,102322.84
2019-04-13T22:52:54.360Z,102321.59
2019-04-13T22:55:38.757Z,102327.05
2019-04-13T22:58:09.490Z,102329.84
2019-04-13T23:00:41.255Z,102327.17
2019-04-13T23:03:15.935Z,102325.70
2019-04-13T23:05:46.321Z,102325.52
2019-04-13T23:08:16.358Z,102318.81
2019-04-13T23:10:46.569Z,102323.04
2019-04-13T23:13:16.894Z,102321.13
2019-04-13T23:15:47.141Z,102324.77
2019-04-13T23:18:19.121Z,102317.56
2019-04-13T23:20:51.740Z,102314.66
2019-04-13T23:23:22.239Z,102326.67
2019-04-13T23:25:52.897Z,102319.29
2019-04-13T23:28:22.907Z,102320.73
2019-04-13T23:30:53.145Z,102321.31
2019-04-13T23:33:23.560Z,102322.07
2019-04-13T23:35:54.056Z,102313.72
2019-04-13T23:38:24.548Z,102320.06
2019-04-13T23:40:54.943Z,102317.95
2019-04-13T23:43:25.522Z,102318.22
2019-04-13T23:45:55.990Z,102315.63
2019-04-13T23:48:28.583Z,102313.80
2019-04-13T23:50:59.013Z,102319.47
2019-04-13T23:53:32.190Z,102308.69
2019-04-13T23:56:04.146Z,102311.13
2019-04-13T23:58:38.746Z,102308.81
